Time;durP1;ratioP1;P1;durP2;ratioP2;P2;SDS_P1;SDS_P2;PMS_P1;PMS_P2;Temp;Humidity;BMP_temperature;BMP_pressure;BME280_temperature;BME280_humidity;BME280_pressure;Samples;Min_cycle;Max_cycle;Signal;HPM_P1;HPM_P2
2021/04/08 00:00:39;;;;;;;7.25;1.70;;;-1.00;76.70;;;;;;5188751;28;20045;-64
2021/04/08 00:03:11;;;;;;;4.35;1.77;;;-1.10;76.30;;;;;;5184752;28;20057;-65
2021/04/08 00:05:42;;;;;;;4.53;1.80;;;-1.10;75.40;;;;;;5189569;28;20545;-65
2021/04/08 00:08:14;;;;;;;5.22;1.75;;;-1.10;76.50;;;;;;5188842;28;20049;-65
2021/04/08 00:10:45;;;;;;;4.95;1.90;;;-1.10;76.60;;;;;;5185518;28;20236;-64
2021/04/08 00:13:16;;;;;;;4.55;1.65;;;-1.10;76.20;;;;;;5185222;28;20099;-65
2021/04/08 00:15:48;;;;;;;4.85;1.90;;;-1.10;75.50;;;;;;5187845;28;20051;-65
2021/04/08 00:18:20;;;;;;;3.58;1.45;;;-1.00;76.00;;;;;;5188626;28;20132;-65
2021/04/08 00:20:51;;;;;;;5.00;1.73;;;-1.00;76.10;;;;;;5188814;28;20042;-65
2021/04/08 00:23:23;;;;;;;4.85;1.80;;;-1.00;76.20;;;;;;5187321;28;20050;-65
2021/04/08 00:25:55;;;;;;;5.22;1.67;;;-1.00;75.60;;;;;;5187682;28;20103;-67
2021/04/08 00:28:26;;;;;;;4.72;1.65;;;-1.00;75.50;;;;;;5192553;28;20053;-65
2021/04/08 00:30:58;;;;;;;5.40;1.73;;;-0.90;75.70;;;;;;5192274;28;20077;-67
2021/04/08 00:33:29;;;;;;;5.53;1.83;;;-0.90;75.90;;;;;;5192695;28;20061;-65
2021/04/08 00:36:00;;;;;;;3.28;1.52;;;-0.90;75.70;;;;;;5191113;28;20046;-65
2021/04/08 00:38:32;;;;;;;3.40;1.50;;;-0.90;75.40;;;;;;5187651;28;20191;-65
2021/04/08 00:41:03;;;;;;;3.45;1.50;;;-1.00;75.40;;;;;;5190838;28;20420;-65
2021/04/08 00:43:35;;;;;;;4.05;1.42;;;-1.00;76.40;;;;;;5187390;28;20085;-65
2021/04/08 00:46:06;;;;;;;5.47;1.80;;;-0.90;76.20;;;;;;5188183;28;20142;-67
2021/04/08 00:48:38;;;;;;;4.93;1.65;;;-0.90;75.30;;;;;;5187982;28;20124;-64
2021/04/08 00:51:11;;;;;;;4.45;1.83;;;-0.90;75.80;;;;;;5187607;28;20123;-65
2021/04/08 00:53:44;;;;;;;4.40;1.70;;;-0.80;75.80;;;;;;5172957;28;20045;-65
2021/04/08 00:56:15;;;;;;;6.60;2.45;;;-0.70;76.20;;;;;;5187466;28;20131;-64
2021/04/08 00:58:49;;;;;;;5.05;1.80;;;-0.70;76.20;;;;;;5186765;28;20057;-66
2021/04/08 01:01:21;;;;;;;3.90;1.50;;;-0.70;76.00;;;;;;5185481;28;20469;-67
2021/04/08 01:03:52;;;;;;;3.92;1.90;;;-0.70;76.10;;;;;;5185119;28;20077;-64
2021/04/08 01:06:24;;;;;;;4.55;1.75;;;-0.60;76.10;;;;;;5187356;28;20239;-65
2021/04/08 01:08:55;;;;;;;4.90;1.88;;;-0.60;75.90;;;;;;5192684;28;20099;-64
2021/04/08 01:11:26;;;;;;;5.53;1.90;;;-0.60;76.80;;;;;;5187365;28;20100;-65
2021/04/08 01:13:58;;;;;;;5.15;1.70;;;-0.60;75.90;;;;;;5190929;28;20073;-65
2021/04/08 01:17:07;;;;;;;4.40;1.75;;;-0.70;76.10;;;;;;5187955;28;20143;-64
2021/04/08 01:20:13;;;;;;;6.13;2.17;;;-0.70;76.60;;;;;;5188691;28;20049;-65
2021/04/08 01:22:58;;;;;;;5.80;2.08;;;-0.70;76.40;;;;;;5189874;28;20045;-64
2021/04/08 01:25:44;;;;;;;4.38;2.10;;;-0.60;77.10;;;;;;5188525;28;20080;-65
2021/04/08 01:28:43;;;;;;;4.63;1.70;;;-0.70;77.60;;;;;;5186485;28;20056;-66
2021/04/08 01:31:16;;;;;;;3.72;1.67;;;-0.60;76.70;;;;;;5183742;28;20131;-65
2021/04/08 01:33:54;;;;;;;7.22;2.20;;;-0.70;77.60;;;;;;5199869;28;20053;-66
2021/04/08 01:36:30;;;;;;;6.57;2.40;;;-0.60;77.00;;;;;;5173517;28;20061;-68
2021/04/08 01:39:05;;;;;;;3.85;2.03;;;-0.70;76.70;;;;;;5187503;28;20049;-66
2021/04/08 01:41:41;;;;;;;3.60;1.67;;;-0.70;76.60;;;;;;5188506;28;20056;-64
2021/04/08 01:44:19;;;;;;;5.10;1.92;;;-0.70;76.30;;;;;;5188706;28;20124;-65
2021/04/08 01:47:05;;;;;;;5.75;2.00;;;-0.80;76.10;;;;;;5192545;28;20134;-65
2021/04/08 01:49:40;;;;;;;4.40;1.80;;;-0.70;76.40;;;;;;5195241;28;20599;-67
2021/04/08 01:52:15;;;;;;;5.55;2.03;;;-0.70;77.10;;;;;;5186396;28;20137;-65
2021/04/08 01:54:53;;;;;;;8.88;2.38;;;-0.70;76.90;;;;;;5186485;28;20056;-65
2021/04/08 01:57:26;;;;;;;3.88;1.90;;;-0.70;77.30;;;;;;5185542;28;20115;-65
2021/04/08 02:00:00;;;;;;;6.88;2.20;;;-0.70;76.70;;;;;;5190543;28;20072;-65
2021/04/08 02:02:32;;;;;;;5.85;1.95;;;-0.80;76.40;;;;;;5182295;28;20050;-67
2021/04/08 02:05:13;;;;;;;7.40;2.10;;;-0.80;75.80;;;;;;5185041;28;20539;-66
2021/04/08 02:07:50;;;;;;;5.03;1.70;;;-0.80;76.80;;;;;;5185332;28;20144;-66
2021/04/08 02:10:23;;;;;;;5.15;2.00;;;-0.80;76.30;;;;;;5184219;28;20198;-65
2021/04/08 02:12:55;;;;;;;5.38;1.90;;;-0.80;76.00;;;;;;5186562;28;20045;-64
2021/04/08 02:15:28;;;;;;;4.65;2.00;;;-0.70;76.10;;;;;;5187228;28;20041;-65
2021/04/08 02:18:01;;;;;;;4.47;1.88;;;-0.80;76.30;;;;;;5193361;28;20104;-65
2021/04/08 02:20:34;;;;;;;5.20;2.08;;;-0.80;76.40;;;;;;5185941;28;20067;-66
2021/04/08 02:23:06;;;;;;;7.60;2.97;;;-0.80;76.90;;;;;;5188995;28;20045;-66
2021/04/08 02:25:38;;;;;;;4.88;2.30;;;-0.80;76.90;;;;;;5186043;28;20045;-66
2021/04/08 02:28:10;;;;;;;3.70;1.92;;;-0.80;76.60;;;;;;5186216;28;20069;-67
2021/04/08 02:30:46;;;;;;;5.22;2.00;;;-0.80;76.10;;;;;;5183717;28;20131;-68
2021/04/08 02:33:23;;;;;;;6.15;1.95;;;-0.80;76.30;;;;;;5186640;28;20066;-65
2021/04/08 02:35:56;;;;;;;6.70;1.88;;;-0.80;76.50;;;;;;5187592;28;20049;-65
2021/04/08 02:38:29;;;;;;;4.82;2.10;;;-0.80;76.00;;;;;;5186215;28;20991;-66
2021/04/08 02:41:07;;;;;;;6.47;2.10;;;-0.80;76.20;;;;;;5188105;28;20128;-65
2021/04/08 02:43:39;;;;;;;4.38;1.95;;;-0.80;75.60;;;;;;5187176;28;20415;-65
2021/04/08 02:46:11;;;;;;;4.88;1.90;;;-0.90;75.30;;;;;;5190174;28;20056;-65
2021/04/08 02:48:42;;;;;;;5.60;1.73;;;-0.90;75.60;;;;;;5187811;28;20140;-65
2021/04/08 02:51:26;;;;;;;3.65;1.58;;;-0.90;75.40;;;;;;5187647;28;20046;-65
2021/04/08 02:54:35;;;;;;;5.00;2.00;;;-0.90;75.10;;;;;;5188369;28;20050;-66
2021/04/08 02:57:09;;;;;;;3.25;1.70;;;-1.00;75.00;;;;;;5185639;28;20045;-65
2021/04/08 02:59:53;;;;;;;5.95;2.30;;;-1.00;76.00;;;;;;5184481;28;20049;-67
2021/04/08 03:02:28;;;;;;;4.82;2.00;;;-1.00;75.40;;;;;;5183585;28;20049;-65
2021/04/08 03:05:00;;;;;;;5.90;1.92;;;-1.00;75.10;;;;;;5185126;28;20053;-65
2021/04/08 03:07:40;;;;;;;6.15;2.42;;;-1.00;74.90;;;;;;5186872;28;20823;-65
2021/04/08 03:10:13;;;;;;;;;;;-1.00;74.70;;;;;;5184715;28;20099;-65
2021/04/08 03:12:47;;;;;;;4.43;2.25;;;-1.00;74.90;;;;;;5182093;28;19929;-66
2021/04/08 03:15:31;;;;;;;6.43;2.40;;;-1.00;75.10;;;;;;5186688;28;20053;-65
2021/04/08 03:18:13;;;;;;;6.68;2.25;;;-1.00;75.10;;;;;;5189458;28;20049;-66
2021/04/08 03:20:51;;;;;;;6.03;2.28;;;-1.00;74.70;;;;;;5179229;28;20073;-65
2021/04/08 03:23:24;;;;;;;5.38;2.28;;;-1.00;73.70;;;;;;5184899;28;20041;-65
2021/04/08 03:25:56;;;;;;;3.90;1.73;;;-1.00;73.40;;;;;;5186024;28;20046;-67
2021/04/08 03:28:28;;;;;;;3.80;1.60;;;-1.00;73.70;;;;;;5185439;28;20045;-65
2021/04/08 03:31:08;;;;;;;4.55;1.80;;;-0.90;74.00;;;;;;5189143;28;20100;-67
2021/04/08 03:33:40;;;;;;;5.53;1.80;;;-0.90;73.80;;;;;;5188474;28;20140;-65
2021/04/08 03:36:15;;;;;;;5.57;2.30;;;-0.90;73.30;;;;;;5190736;28;20052;-65
2021/04/08 03:38:47;;;;;;;4.40;1.63;;;-0.90;74.00;;;;;;5192591;28;20046;-66
2021/04/08 03:41:19;;;;;;;6.10;1.92;;;-1.00;73.60;;;;;;5188488;28;20068;-66
2021/04/08 03:43:51;;;;;;;6.82;2.70;;;-1.00;73.80;;;;;;5185792;28;20049;-66
2021/04/08 03:46:24;;;;;;;6.70;2.08;;;-0.90;74.00;;;;;;5189165;28;20585;-65
2021/04/08 03:48:58;;;;;;;4.53;1.90;;;-1.00;74.50;;;;;;5197132;28;20053;-66
2021/04/08 03:51:32;;;;;;;5.40;1.98;;;-1.00;74.70;;;;;;5187799;28;20048;-66
2021/04/08 03:54:08;;;;;;;4.35;1.85;;;-1.00;74.60;;;;;;5190986;28;20682;-65
2021/04/08 03:56:43;;;;;;;5.72;2.08;;;-1.20;76.00;;;;;;5188456;28;20080;-66
2021/04/08 03:59:16;;;;;;;4.70;2.28;;;-1.30;75.70;;;;;;5184354;28;20057;-66
2021/04/08 04:01:48;;;;;;;5.32;2.10;;;-1.40;76.70;;;;;;5203882;28;20503;-67
2021/04/08 04:04:20;;;;;;;5.40;2.30;;;-1.40;77.20;;;;;;5184866;28;20058;-67
2021/04/08 04:06:54;;;;;;;7.18;2.80;;;-1.50;77.70;;;;;;5192091;28;20060;-66
2021/04/08 04:09:26;;;;;;;5.57;2.00;;;-1.50;77.90;;;;;;5186712;28;20112;-66
2021/04/08 04:11:58;;;;;;;6.70;2.88;;;-1.60;78.00;;;;;;5189021;28;20041;-66
2021/04/08 04:14:31;;;;;;;16.73;5.93;;;-1.50;77.50;;;;;;5185514;28;20487;-65
2021/04/08 04:17:27;;;;;;;9.32;3.33;;;-1.60;77.50;;;;;;5188457;28;20069;-66
2021/04/08 04:19:59;;;;;;;11.45;4.60;;;-1.70;77.30;;;;;;5190907;28;20107;-65
2021/04/08 04:22:42;;;;;;;10.63;4.50;;;-1.70;78.50;;;;;;5190928;28;20543;-66
2021/04/08 04:25:14;;;;;;;20.75;10.43;;;-1.70;78.20;;;;;;5178969;28;20050;-67
2021/04/08 04:27:45;;;;;;;8.85;3.22;;;-1.70;78.30;;;;;;5184273;28;20050;-68
2021/04/08 04:30:17;;;;;;;5.45;2.30;;;-1.80;78.10;;;;;;5189273;28;20466;-69
2021/04/08 04:32:52;;;;;;;4.57;2.05;;;-1.80;78.50;;;;;;5188491;28;20119;-67
2021/04/08 04:35:23;;;;;;;5.57;2.10;;;-1.80;79.00;;;;;;5188544;28;20124;-66
2021/04/08 04:37:55;;;;;;;5.90;1.80;;;-1.80;78.70;;;;;;5186917;28;20045;-66
2021/04/08 04:40:26;;;;;;;10.23;2.38;;;-1.80;78.70;;;;;;5189356;28;20338;-66
2021/04/08 04:42:58;;;;;;;5.35;1.90;;;-1.80;78.70;;;;;;5183124;28;20139;-66
2021/04/08 04:45:29;;;;;;;5.05;2.10;;;-1.80;79.10;;;;;;5185217;28;20129;-66
2021/04/08 04:48:00;;;;;;;5.63;2.53;;;-1.70;79.60;;;;;;5188296;28;20038;-68
2021/04/08 04:50:32;;;;;;;7.13;2.63;;;-1.70;78.90;;;;;;5188144;28;20046;-67
2021/04/08 04:53:04;;;;;;;6.55;2.75;;;-1.70;78.60;;;;;;5186723;28;20065;-66
2021/04/08 04:55:35;;;;;;;5.47;2.20;;;-1.80;78.40;;;;;;5188704;28;20053;-66
2021/04/08 04:58:07;;;;;;;8.73;3.60;;;-1.60;78.80;;;;;;5188089;28;20120;-66
2021/04/08 05:00:38;;;;;;;7.20;2.42;;;-1.60;78.80;;;;;;5185028;28;20103;-66
2021/04/08 05:03:10;;;;;;;13.98;2.90;;;-1.50;78.30;;;;;;5190563;28;20073;-65
2021/04/08 05:05:41;;;;;;;7.20;2.78;;;-1.50;78.30;;;;;;5185055;28;20124;-64
2021/04/08 05:08:13;;;;;;;15.23;6.53;;;-1.50;78.10;;;;;;5190522;28;20087;-65
2021/04/08 05:10:48;;;;;;;12.32;5.30;;;-1.50;77.60;;;;;;5194118;28;20124;-64
2021/04/08 05:13:19;;;;;;;9.75;3.97;;;-1.50;78.00;;;;;;5192353;28;20037;-64
2021/04/08 05:15:54;;;;;;;5.45;2.03;;;-1.50;78.40;;;;;;5192925;28;20431;-65
2021/04/08 05:18:26;;;;;;;5.45;2.05;;;-1.40;78.00;;;;;;5193561;28;20045;-64
2021/04/08 05:20:58;;;;;;;5.13;1.75;;;-1.30;78.20;;;;;;5191857;28;20099;-65
2021/04/08 05:23:29;;;;;;;6.85;2.05;;;-1.30;77.80;;;;;;5189789;28;20037;-65
2021/04/08 05:26:00;;;;;;;8.48;4.05;;;-1.30;77.50;;;;;;5190771;28;20057;-65
2021/04/08 05:28:32;;;;;;;7.97;2.90;;;-1.40;76.90;;;;;;5199840;28;20061;-64
2021/04/08 05:31:04;;;;;;;13.40;6.45;;;-1.40;77.70;;;;;;5189003;28;20057;-65
2021/04/08 05:33:36;;;;;;;8.57;3.20;;;-1.40;77.70;;;;;;5193116;28;20100;-64
2021/04/08 05:36:08;;;;;;;10.98;4.20;;;-1.40;78.90;;;;;;5190699;28;20046;-65
2021/04/08 05:38:39;;;;;;;6.78;2.30;;;-1.40;78.10;;;;;;5186877;28;20202;-64
2021/04/08 05:41:10;;;;;;;4.03;1.52;;;-1.30;77.70;;;;;;5189717;28;20131;-66
2021/04/08 05:43:43;;;;;;;9.88;3.58;;;-1.20;77.90;;;;;;5175522;28;20407;-64
2021/04/08 05:46:15;;;;;;;8.13;3.13;;;-1.10;77.00;;;;;;5199920;28;20054;-64
2021/04/08 05:48:46;;;;;;;7.35;3.28;;;-1.00;76.60;;;;;;5184470;28;20124;-65
2021/04/08 05:51:18;;;;;;;12.43;5.75;;;-1.00;76.20;;;;;;5184582;28;20076;-66
2021/04/08 05:53:50;;;;;;;7.45;3.20;;;-1.00;76.60;;;;;;5191148;28;20096;-64
2021/04/08 05:56:21;;;;;;;9.88;3.95;;;-0.90;75.70;;;;;;5185381;28;20163;-65
2021/04/08 05:58:52;;;;;;;9.77;4.40;;;-0.90;76.40;;;;;;5188778;28;20092;-64
2021/04/08 06:01:24;;;;;;;7.15;2.42;;;-0.80;76.60;;;;;;5186850;28;20470;-65
2021/04/08 06:04:00;;;;;;;12.35;6.28;;;-0.70;77.20;;;;;;5184029;28;20715;-64
2021/04/08 06:06:32;;;;;;;10.18;4.43;;;-0.70;76.00;;;;;;5185874;28;20046;-67
2021/04/08 06:09:03;;;;;;;10.65;5.28;;;-0.80;75.70;;;;;;5179611;28;20057;-67
2021/04/08 06:11:35;;;;;;;8.85;3.85;;;-0.80;76.10;;;;;;5187004;28;20099;-65
2021/04/08 06:14:07;;;;;;;8.90;3.80;;;-0.90;76.40;;;;;;5189051;28;20096;-64
2021/04/08 06:16:39;;;;;;;7.57;3.00;;;-0.80;75.90;;;;;;5185856;28;20064;-65
2021/04/08 06:19:10;;;;;;;10.30;4.38;;;-0.80;76.20;;;;;;5186926;28;20426;-64
2021/04/08 06:21:41;;;;;;;8.05;2.88;;;-0.80;75.90;;;;;;5184073;28;20048;-65
2021/04/08 06:24:13;;;;;;;6.10;2.85;;;-0.70;76.70;;;;;;5184423;28;20100;-64
2021/04/08 06:26:44;;;;;;;7.70;2.67;;;-0.60;76.30;;;;;;5187182;28;20060;-64
2021/04/08 06:29:16;;;;;;;7.43;2.70;;;-0.60;75.40;;;;;;5185816;28;20050;-64
2021/04/08 06:31:52;;;;;;;5.78;2.40;;;-0.60;75.90;;;;;;5185684;28;20164;-66
2021/04/08 06:34:24;;;;;;;6.57;2.25;;;-0.60;75.90;;;;;;5190793;28;20050;-65
2021/04/08 06:36:55;;;;;;;4.95;1.95;;;-0.50;75.80;;;;;;5186302;28;20045;-65
2021/04/08 06:39:27;;;;;;;4.45;2.08;;;-0.40;75.80;;;;;;5184126;28;20046;-64
2021/04/08 06:41:58;;;;;;;5.50;1.92;;;-0.40;75.80;;;;;;5184864;28;20073;-64
2021/04/08 06:44:31;;;;;;;4.57;1.63;;;-0.10;75.50;;;;;;5185061;28;20061;-64
2021/04/08 06:47:04;;;;;;;5.80;1.98;;;0.00;75.60;;;;;;5189416;28;20182;-68
2021/04/08 06:49:42;;;;;;;4.13;1.65;;;0.20;74.80;;;;;;5190654;28;20041;-65
2021/04/08 06:52:17;;;;;;;5.88;2.05;;;0.30;75.40;;;;;;5180639;28;20129;-64
2021/04/08 06:54:49;;;;;;;5.07;2.28;;;0.40;74.40;;;;;;5190991;28;20040;-68
2021/04/08 06:57:21;;;;;;;6.85;2.08;;;0.50;73.80;;;;;;5188194;28;20042;-65
2021/04/08 06:59:53;;;;;;;7.22;2.03;;;0.50;74.40;;;;;;5185589;28;20107;-65
2021/04/08 07:02:26;;;;;;;5.35;1.80;;;0.60;73.30;;;;;;5187605;28;20141;-64
2021/04/08 07:04:59;;;;;;;6.70;2.50;;;0.60;73.20;;;;;;5186841;28;20038;-65
2021/04/08 07:07:30;;;;;;;6.60;2.30;;;0.70;72.90;;;;;;5191295;28;20045;-64
2021/04/08 07:10:03;;;;;;;5.63;2.17;;;0.80;72.00;;;;;;5188839;28;20122;-68
2021/04/08 07:12:35;;;;;;;5.57;2.10;;;0.90;72.60;;;;;;5186987;28;20099;-67
2021/04/08 07:15:08;;;;;;;4.53;2.03;;;1.10;71.90;;;;;;5187310;28;20049;-67
2021/04/08 07:17:41;;;;;;;5.50;2.08;;;1.20;71.00;;;;;;5193959;28;20048;-65
2021/04/08 07:20:13;;;;;;;7.18;2.33;;;1.30;71.50;;;;;;5192176;28;20169;-64
2021/04/08 07:22:45;;;;;;;6.57;2.30;;;1.30;70.20;;;;;;5190763;28;20176;-64
2021/04/08 07:25:19;;;;;;;5.60;2.17;;;1.50;69.70;;;;;;5187246;28;20076;-67
2021/04/08 07:27:51;;;;;;;7.72;2.20;;;1.70;70.70;;;;;;5189853;28;20508;-65
2021/04/08 07:30:26;;;;;;;7.82;2.20;;;2.00;69.70;;;;;;5189544;28;20044;-65
2021/04/08 07:32:59;;;;;;;7.60;3.22;;;2.10;69.00;;;;;;5193568;28;20041;-65
2021/04/08 07:35:41;;;;;;;7.55;2.95;;;2.30;67.90;;;;;;5189954;28;20078;-67
2021/04/08 07:38:12;;;;;;;8.02;3.10;;;2.50;67.80;;;;;;5189483;28;20044;-65
2021/04/08 07:40:55;;;;;;;24.92;12.45;;;2.70;66.90;;;;;;5189634;28;20115;-65
2021/04/08 07:43:27;;;;;;;10.77;4.93;;;2.90;66.00;;;;;;5188997;28;20041;-65
2021/04/08 07:46:01;;;;;;;7.05;3.00;;;3.10;66.10;;;;;;5189535;28;20518;-66
2021/04/08 07:48:33;;;;;;;7.82;2.70;;;3.30;63.90;;;;;;5189491;28;20041;-68
2021/04/08 07:51:04;;;;;;;7.18;3.28;;;3.50;63.60;;;;;;5186023;28;20049;-67
2021/04/08 07:53:36;;;;;;;6.57;3.08;;;3.60;61.10;;;;;;5190477;28;20042;-65
2021/04/08 07:56:30;;;;;;;7.80;3.17;;;3.80;63.50;;;;;;5189040;28;20104;-65
2021/04/08 07:59:34;;;;;;;7.22;2.72;;;3.80;60.70;;;;;;5189367;28;20049;-69
2021/04/08 08:02:06;;;;;;;7.13;2.53;;;3.80;62.10;;;;;;5163649;28;20070;-65
2021/04/08 08:04:38;;;;;;;4.63;2.50;;;3.90;60.00;;;;;;5185829;28;20042;-67
2021/04/08 08:07:26;;;;;;;5.95;2.58;;;4.00;59.60;;;;;;5190971;28;20512;-65
2021/04/08 08:10:00;;;;;;;6.32;2.60;;;4.20;60.20;;;;;;5188488;28;20507;-65
2021/04/08 08:12:33;;;;;;;6.43;2.50;;;4.40;59.60;;;;;;5186342;28;20127;-68
2021/04/08 08:15:24;;;;;;;6.32;2.40;;;4.50;57.30;;;;;;5188963;28;20052;-68
2021/04/08 08:17:57;;;;;;;6.72;2.80;;;4.60;59.00;;;;;;5188801;28;20041;-65
2021/04/08 08:20:28;;;;;;;5.82;2.20;;;4.90;59.20;;;;;;5185220;28;20096;-66
2021/04/08 08:23:00;;;;;;;6.10;2.13;;;5.10;54.80;;;;;;5189244;28;20049;-65
2021/04/08 08:25:31;;;;;;;5.38;2.08;;;5.50;55.00;;;;;;5188812;28;20073;-68
2021/04/08 08:28:03;;;;;;;4.88;2.40;;;5.80;54.20;;;;;;5197449;28;20049;-68
2021/04/08 08:30:52;;;;;;;5.28;2.13;;;6.00;52.10;;;;;;5196163;28;20442;-68
2021/04/08 08:33:25;;;;;;;6.55;2.30;;;6.10;49.50;;;;;;5187410;28;20042;-66
2021/04/08 08:35:57;;;;;;;6.72;2.78;;;6.10;49.00;;;;;;5184869;28;20041;-65
2021/04/08 08:38:28;;;;;;;6.68;2.78;;;6.20;50.80;;;;;;5193834;28;20554;-65
2021/04/08 08:41:00;;;;;;;7.28;3.40;;;6.30;50.70;;;;;;5188011;28;20496;-65
2021/04/08 08:43:32;;;;;;;6.80;2.33;;;6.50;48.30;;;;;;5187434;28;20041;-67
2021/04/08 08:46:03;;;;;;;4.82;1.90;;;6.30;46.90;;;;;;5195131;28;20796;-69
2021/04/08 08:48:35;;;;;;;6.03;2.17;;;6.20;48.00;;;;;;5186514;28;20463;-67
2021/04/08 08:51:06;;;;;;;3.95;1.95;;;6.40;47.70;;;;;;5191855;28;20486;-66
2021/04/08 08:53:39;;;;;;;6.20;1.88;;;6.50;47.10;;;;;;5196792;28;20400;-65
2021/04/08 08:56:12;;;;;;;6.13;2.20;;;6.40;44.10;;;;;;5185835;28;20077;-66
2021/04/08 08:58:44;;;;;;;4.88;2.42;;;6.00;44.10;;;;;;5192679;28;20118;-66
2021/04/08 09:01:17;;;;;;;6.78;2.50;;;6.30;46.50;;;;;;5189235;28;20061;-64
2021/04/08 09:03:50;;;;;;;8.13;3.05;;;6.60;44.60;;;;;;5188971;28;20042;-67
2021/04/08 09:06:22;;;;;;;6.10;2.20;;;6.70;47.00;;;;;;5185543;28;20053;-66
2021/04/08 09:08:57;;;;;;;6.25;2.30;;;6.70;44.90;;;;;;5186877;28;20042;-64
2021/04/08 09:11:32;;;;;;;7.47;2.60;;;6.30;44.70;;;;;;5186693;28;20149;-64
2021/04/08 09:14:04;;;;;;;4.82;2.13;;;6.10;47.30;;;;;;5187886;28;20046;-67
2021/04/08 09:16:45;;;;;;;5.53;2.20;;;6.30;44.30;;;;;;5186964;28;20071;-65
2021/04/08 09:19:24;;;;;;;;;;;6.60;44.90;;;;;;5195557;28;20472;-68
2021/04/08 09:22:08;;;;;;;4.85;2.08;;;7.00;45.80;;;;;;5185891;28;19931;-64
2021/04/08 09:24:48;;;;;;;4.60;2.22;;;7.60;46.70;;;;;;5189772;28;20037;-65
2021/04/08 09:27:21;;;;;;;4.80;2.10;;;8.00;46.20;;;;;;5191206;28;20046;-67
2021/04/08 09:29:56;;;;;;;7.55;1.92;;;8.10;41.50;;;;;;5187946;28;20108;-65
2021/04/08 09:32:45;;;;;;;5.10;2.10;;;7.60;37.30;;;;;;5189734;28;20065;-65
2021/04/08 09:35:18;;;;;;;6.75;2.10;;;7.70;42.70;;;;;;5188108;28;20049;-65
2021/04/08 09:38:12;;;;;;;4.28;1.90;;;7.60;42.70;;;;;;5187597;28;20519;-66
2021/04/08 09:40:47;;;;;;;5.15;2.10;;;7.90;41.00;;;;;;5187452;28;20053;-65
2021/04/08 09:43:21;;;;;;;5.05;2.10;;;7.70;36.60;;;;;;5183596;28;20046;-67
2021/04/08 09:45:59;;;;;;;6.32;2.00;;;8.10;40.40;;;;;;5189692;28;20115;-65
2021/04/08 09:48:52;;;;;;;4.55;2.00;;;8.30;38.10;;;;;;5192008;28;20041;-65
2021/04/08 09:51:32;;;;;;;5.35;2.05;;;7.60;37.50;;;;;;5187801;28;20051;-67
2021/04/08 09:54:15;;;;;;;4.90;2.05;;;7.10;37.20;;;;;;5187811;28;20037;-68
2021/04/08 09:56:50;;;;;;;5.20;2.17;;;6.90;37.90;;;;;;5188375;28;20099;-67
2021/04/08 09:59:24;;;;;;;4.95;1.85;;;6.90;40.00;;;;;;5188461;28;20446;-65
2021/04/08 10:01:55;;;;;;;6.78;1.90;;;6.60;39.70;;;;;;5188182;28;20045;-65
2021/04/08 10:04:27;;;;;;;5.38;2.03;;;6.70;40.30;;;;;;5182329;28;20037;-65
2021/04/08 10:07:06;;;;;;;4.57;2.00;;;6.80;41.30;;;;;;5187027;28;20458;-65
2021/04/08 10:09:38;;;;;;;3.97;1.73;;;6.20;38.50;;;;;;5188317;28;20045;-65
2021/04/08 10:12:11;;;;;;;6.18;2.00;;;6.40;42.20;;;;;;5183773;28;20037;-65
2021/04/08 10:14:43;;;;;;;4.28;1.90;;;6.80;38.60;;;;;;5184403;28;20073;-64
2021/04/08 10:17:14;;;;;;;4.03;1.77;;;7.00;39.80;;;;;;5183610;28;20049;-66
2021/04/08 10:19:46;;;;;;;5.32;1.77;;;6.70;38.60;;;;;;5190134;28;20084;-66
2021/04/08 10:22:18;;;;;;;4.53;1.90;;;6.90;40.20;;;;;;5186920;28;20061;-69
2021/04/08 10:24:50;;;;;;;4.65;1.92;;;6.60;38.90;;;;;;5187867;28;20065;-68
2021/04/08 10:27:24;;;;;;;5.55;1.98;;;6.40;41.10;;;;;;5186346;28;20053;-65
2021/04/08 10:29:56;;;;;;;5.30;2.28;;;6.40;43.00;;;;;;5186663;28;20062;-65
2021/04/08 10:32:35;;;;;;;5.85;1.90;;;6.60;39.70;;;;;;5188551;28;20511;-65
2021/04/08 10:35:28;;;;;;;4.78;1.85;;;6.80;41.10;;;;;;5188178;28;20468;-65
2021/04/08 10:38:05;;;;;;;5.93;1.80;;;6.50;41.40;;;;;;5169983;28;20060;-64
2021/04/08 10:40:37;;;;;;;6.38;2.17;;;6.50;39.60;;;;;;5188286;28;20943;-63
2021/04/08 10:43:16;;;;;;;6.55;1.77;;;6.10;40.70;;;;;;5194961;28;20446;-64
2021/04/08 10:45:55;;;;;;;5.43;2.10;;;6.10;41.70;;;;;;5191427;28;20041;-67
2021/04/08 10:48:27;;;;;;;5.93;1.92;;;6.20;42.00;;;;;;5190631;28;20419;-64
2021/04/08 10:51:12;;;;;;;4.95;1.90;;;6.40;40.50;;;;;;5190660;28;20104;-63
2021/04/08 10:53:47;;;;;;;4.90;2.08;;;6.60;42.70;;;;;;5190450;28;20087;-63
2021/04/08 10:56:22;;;;;;;4.65;1.95;;;7.30;38.70;;;;;;5187084;28;20029;-67
2021/04/08 10:58:53;;;;;;;6.25;2.13;;;7.50;37.80;;;;;;5190423;28;20119;-65
2021/04/08 11:01:29;;;;;;;5.65;2.10;;;7.50;39.20;;;;;;5193138;28;20049;-64
2021/04/08 11:04:07;;;;;;;4.93;1.65;;;7.40;37.40;;;;;;5191608;28;20050;-67
2021/04/08 11:06:39;;;;;;;5.00;1.90;;;7.30;36.80;;;;;;5190269;28;20782;-64
2021/04/08 11:09:10;;;;;;;4.38;1.80;;;7.20;37.90;;;;;;5194811;28;20049;-64
2021/04/08 11:11:41;;;;;;;4.13;1.95;;;7.30;38.00;;;;;;5189979;28;20038;-64
2021/04/08 11:14:44;;;;;;;6.05;1.95;;;7.50;36.50;;;;;;5191450;28;20717;-63
2021/04/08 11:17:17;;;;;;;4.88;1.85;;;7.50;39.10;;;;;;5186845;28;20046;-63
2021/04/08 11:19:52;;;;;;;4.78;2.03;;;7.10;37.90;;;;;;5190759;28;20063;-66
2021/04/08 11:22:32;;;;;;;4.00;1.90;;;6.80;39.30;;;;;;5191132;28;20088;-64
2021/04/08 11:25:07;;;;;;;;;;;6.60;39.60;;;;;;5191806;28;20048;-66
2021/04/08 11:27:43;;;;;;;6.35;1.95;;;6.90;37.40;;;;;;5187925;28;19921;-63
2021/04/08 11:30:27;;;;;;;5.53;1.90;;;7.10;39.00;;;;;;5187958;28;20042;-63
2021/04/08 11:33:00;;;;;;;4.45;1.90;;;7.20;38.10;;;;;;5186203;28;20033;-63
2021/04/08 11:35:41;;;;;;;7.55;2.35;;;7.40;38.00;;;;;;5189591;28;20061;-66
2021/04/08 11:38:21;;;;;;;4.32;1.67;;;8.00;35.20;;;;;;5191057;28;20071;-64
2021/04/08 11:41:02;;;;;;;4.38;1.80;;;8.00;37.60;;;;;;5189372;28;20052;-63
2021/04/08 11:43:34;;;;;;;;;;;8.50;32.40;;;;;;5195482;28;20050;-67
2021/04/08 11:46:06;;;;;;;4.57;1.80;;;8.80;34.30;;;;;;5185748;28;19932;-64
2021/04/08 11:48:42;;;;;;;3.45;1.88;;;9.00;34.90;;;;;;5189188;28;20061;-65
2021/04/08 11:51:21;;;;;;;3.05;1.58;;;9.60;33.20;;;;;;5190331;28;20067;-66
2021/04/08 11:53:53;;;;;;;5.40;1.83;;;9.90;33.20;;;;;;5189142;28;20519;-64
2021/04/08 11:56:35;;;;;;;4.65;1.60;;;9.40;31.50;;;;;;5187076;28;20112;-64
2021/04/08 11:59:14;;;;;;;3.67;1.60;;;8.50;33.70;;;;;;5191453;28;20065;-64
2021/04/08 12:01:48;;;;;;;5.60;1.85;;;8.50;34.40;;;;;;5192412;28;20049;-64
2021/04/08 12:04:23;;;;;;;4.00;1.77;;;8.70;34.40;;;;;;5191424;28;20148;-64
2021/04/08 12:07:05;;;;;;;3.58;1.73;;;8.70;32.10;;;;;;5190644;28;20073;-64
2021/04/08 12:09:40;;;;;;;4.00;1.65;;;9.00;32.80;;;;;;5188330;28;20477;-65
2021/04/08 12:12:12;;;;;;;5.45;2.40;;;9.40;31.40;;;;;;5185418;28;20113;-64
2021/04/08 12:15:07;;;;;;;4.18;1.60;;;9.50;33.80;;;;;;5188668;28;20038;-64
2021/04/08 12:17:38;;;;;;;4.05;1.30;;;8.80;32.30;;;;;;5190785;28;20033;-64
2021/04/08 12:20:20;;;;;;;3.33;1.60;;;8.90;33.60;;;;;;5190019;28;20049;-64
2021/04/08 12:22:52;;;;;;;5.28;1.90;;;8.90;32.40;;;;;;5192064;28;20128;-64
2021/04/08 12:25:24;;;;;;;3.72;1.98;;;8.70;33.20;;;;;;5194562;28;20091;-64
2021/04/08 12:27:57;;;;;;;6.20;2.05;;;9.30;34.50;;;;;;5191309;28;20103;-64
2021/04/08 12:30:29;;;;;;;3.33;1.70;;;9.80;33.30;;;;;;5188645;28;20511;-64
2021/04/08 12:33:00;;;;;;;4.97;1.98;;;10.20;31.90;;;;;;5188413;28;20057;-64
2021/04/08 12:35:32;;;;;;;5.60;2.15;;;10.50;30.90;;;;;;5187289;28;20040;-68
2021/04/08 12:38:03;;;;;;;4.53;1.83;;;10.70;31.50;;;;;;5189460;28;20616;-67
2021/04/08 12:40:35;;;;;;;4.13;1.90;;;11.10;31.20;;;;;;5185155;28;20511;-65
2021/04/08 12:43:08;;;;;;;4.82;2.00;;;11.20;30.60;;;;;;5187970;28;20110;-64
2021/04/08 12:45:39;;;;;;;4.78;1.70;;;11.10;29.60;;;;;;5191455;28;20048;-64
2021/04/08 12:48:11;;;;;;;5.82;2.35;;;10.80;30.20;;;;;;5189980;28;20066;-67
2021/04/08 12:50:44;;;;;;;4.97;1.90;;;10.50;32.20;;;;;;5185339;28;20136;-64
2021/04/08 12:53:17;;;;;;;5.00;1.75;;;10.60;33.80;;;;;;5189696;28;20467;-64
2021/04/08 12:55:48;;;;;;;3.15;1.55;;;10.50;30.80;;;;;;5171539;28;20041;-66
2021/04/08 12:58:23;;;;;;;4.53;1.90;;;10.40;31.00;;;;;;5185967;28;20068;-65
2021/04/08 13:00:54;;;;;;;4.72;1.60;;;10.10;30.70;;;;;;5189391;28;20477;-64
2021/04/08 13:03:26;;;;;;;4.35;2.25;;;10.30;32.80;;;;;;5189757;28;20049;-64
2021/04/08 13:05:57;;;;;;;6.97;2.38;;;10.20;31.10;;;;;;5187908;28;20054;-64
2021/04/08 13:08:29;;;;;;;4.40;2.00;;;10.20;32.60;;;;;;5188762;28;20077;-64
2021/04/08 13:11:01;;;;;;;4.82;2.40;;;10.60;30.00;;;;;;5187740;28;20555;-65
2021/04/08 13:13:33;;;;;;;5.72;2.50;;;10.90;33.30;;;;;;5189798;28;20068;-68
2021/04/08 13:16:06;;;;;;;5.10;2.50;;;11.10;33.00;;;;;;5186929;28;20241;-66
2021/04/08 13:18:37;;;;;;;4.60;2.20;;;11.20;31.40;;;;;;5185678;28;20038;-64
2021/04/08 13:21:09;;;;;;;4.07;2.10;;;11.50;31.50;;;;;;5186460;28;20128;-64
2021/04/08 13:23:40;;;;;;;5.53;2.20;;;11.70;31.20;;;;;;5190522;28;20045;-64
2021/04/08 13:26:11;;;;;;;5.10;2.50;;;11.90;31.20;;;;;;5186418;28;20038;-65
2021/04/08 13:28:43;;;;;;;7.57;3.10;;;11.90;30.00;;;;;;5187805;28;20092;-64